This is the latest recevied weather packets stored in our database for station/object KR0L-13. If no packets are shown the sender has not sent any weather packets the latest 10 day(s).
| Time | Temp. | Humidity | Pressure | Rain* | Wind** | Luminosity | Snow |
|---|---|---|---|---|---|---|---|
| 1777576821 | 16.67° C | 55% | 1018.5 hPa | 0 mm | - | - | - |
| 1777576221 | 16.67° C | 56% | 1018.6 hPa | 0 mm | - | - | - |
| 1777575621 | 17.22° C | 56% | 1018.7 hPa | 0 mm | - | - | - |
| 1777575021 | 17.22° C | 55% | 1018.6 hPa | 0 mm | - | - | - |
| 1777574421 | 17.22° C | 53% | 1018.8 hPa | 0 mm | - | - | - |
| 1777573821 | 17.78° C | 52% | 1018.9 hPa | 0 mm | - | - | - |
| 1777573221 | 18.33° C | 50% | 1018.9 hPa | 0 mm | - | - | - |
| 1777572621 | 18.33° C | 49% | 1019.1 hPa | 0 mm | - | - | - |
| 1777572021 | 17.78° C | 48% | 1019.3 hPa | 0 mm | - | - | - |
| 1777571421 | 17.78° C | 49% | 1019.4 hPa | 0 mm | - | - | - |
| 1777570821 | 17.78° C | 49% | 1019.5 hPa | 0 mm | - | - | - |
| 1777570221 | 17.22° C | 50% | 1019.7 hPa | 0 mm | - | - | - |
| 1777569621 | 17.22° C | 51% | 1019.8 hPa | 0 mm | - | - | - |
| 1777569021 | 16.67° C | 51% | 1019.7 hPa | 0 mm | - | - | - |
| 1777568421 | 16.67° C | 51% | 1020 hPa | 0 mm | - | - | - |
| 1777567821 | 17.22° C | 52% | 1020 hPa | 0 mm | - | - | - |
| 1777567221 | 17.22° C | 52% | 1020.1 hPa | 0 mm | - | - | - |
| 1777566621 | 16.67° C | 54% | 1020.2 hPa | 0 mm | - | - | - |
| 1777566021 | 16.67° C | 55% | 1020.1 hPa | 0 mm | - | - | - |
| 1777565421 | 15.56° C | 60% | 1020.1 hPa | 0 mm | - | - | - |
| 1777564821 | 15° C | 61% | 1020.2 hPa | 0 mm | - | - | - |
| 1777564221 | 14.44° C | 62% | 1020.3 hPa | 0 mm | - | - | - |
| 1777563621 | 13.89° C | 65% | 1020.4 hPa | 0 mm | - | - | - |
| 1777563021 | 13.33° C | 67% | 1020.4 hPa | 0 mm | - | - | - |
| 1777562421 | 13.33° C | 69% | 1020.5 hPa | 0 mm | - | - | - |
* Rain latest hour (hover to see other rain measurements)
** Current wind speed in m/s (hover to see current wind gust speed)